sensor_id;sensor_type;location;lat;lon;timestamp;temperature;humidity
431;DHT22;202;48.764;9.172;2022-07-23T00:25:41;25.90;37.50
431;DHT22;202;48.764;9.172;2022-07-23T00:38:03;25.60;39.00
431;DHT22;202;48.764;9.172;2022-07-23T03:26:19;23.30;51.00
431;DHT22;202;48.764;9.172;2022-07-23T03:29:03;23.30;51.00
431;DHT22;202;48.764;9.172;2022-07-23T03:31:49;23.40;51.10
431;DHT22;202;48.764;9.172;2022-07-23T05:23:14;23.30;50.50
431;DHT22;202;48.764;9.172;2022-07-23T05:25:53;23.30;50.40
431;DHT22;202;48.764;9.172;2022-07-23T05:29:06;23.30;50.10
431;DHT22;202;48.764;9.172;2022-07-23T05:32:10;23.40;50.50
431;DHT22;202;48.764;9.172;2022-07-23T09:10:10;30.30;30.40
431;DHT22;202;48.764;9.172;2022-07-23T09:12:45;30.60;28.60
431;DHT22;202;48.764;9.172;2022-07-23T09:15:22;30.70;29.40
431;DHT22;202;48.764;9.172;2022-07-23T09:18:00;30.90;28.70
431;DHT22;202;48.764;9.172;2022-07-23T09:20:46;30.90;28.50
431;DHT22;202;48.764;9.172;2022-07-23T09:23:39;30.60;28.80
431;DHT22;202;48.764;9.172;2022-07-23T09:26:35;30.60;28.80
431;DHT22;202;48.764;9.172;2022-07-23T09:29:15;30.60;28.20
431;DHT22;202;48.764;9.172;2022-07-23T09:32:23;30.30;28.40
431;DHT22;202;48.764;9.172;2022-07-23T09:35:05;29.80;29.00
431;DHT22;202;48.764;9.172;2022-07-23T09:37:33;29.80;29.60
431;DHT22;202;48.764;9.172;2022-07-23T09:40:14;29.80;29.40
431;DHT22;202;48.764;9.172;2022-07-23T09:42:59;29.90;29.60
431;DHT22;202;48.764;9.172;2022-07-23T09:45:47;30.30;30.00
431;DHT22;202;48.764;9.172;2022-07-23T09:48:31;30.70;27.90
431;DHT22;202;48.764;9.172;2022-07-23T09:51:09;30.80;28.90
431;DHT22;202;48.764;9.172;2022-07-23T09:53:38;31.00;28.20
431;DHT22;202;48.764;9.172;2022-07-23T09:56:22;31.20;27.40
431;DHT22;202;48.764;9.172;2022-07-23T09:58:52;31.10;28.20
431;DHT22;202;48.764;9.172;2022-07-23T10:01:31;31.50;28.40
431;DHT22;202;48.764;9.172;2022-07-23T10:03:59;31.60;27.80
431;DHT22;202;48.764;9.172;2022-07-23T10:06:28;31.70;26.90
431;DHT22;202;48.764;9.172;2022-07-23T10:08:58;31.60;27.10
431;DHT22;202;48.764;9.172;2022-07-23T10:11:27;31.50;27.10
431;DHT22;202;48.764;9.172;2022-07-23T10:13:57;31.50;27.60
431;DHT22;202;48.764;9.172;2022-07-23T10:16:28;31.50;27.70
431;DHT22;202;48.764;9.172;2022-07-23T10:18:55;31.60;28.30
431;DHT22;202;48.764;9.172;2022-07-23T10:21:37;31.70;28.00
431;DHT22;202;48.764;9.172;2022-07-23T10:24:17;31.70;27.50
431;DHT22;202;48.764;9.172;2022-07-23T10:26:55;31.70;27.30
431;DHT22;202;48.764;9.172;2022-07-23T10:29:38;31.50;26.20
431;DHT22;202;48.764;9.172;2022-07-23T10:32:21;31.30;27.10
431;DHT22;202;48.764;9.172;2022-07-23T10:34:58;31.30;27.60
431;DHT22;202;48.764;9.172;2022-07-23T10:37:35;31.30;27.30
431;DHT22;202;48.764;9.172;2022-07-23T10:40:13;31.40;27.80
431;DHT22;202;48.764;9.172;2022-07-23T10:42:50;31.40;25.90
431;DHT22;202;48.764;9.172;2022-07-23T10:45:30;31.50;26.50
431;DHT22;202;48.764;9.172;2022-07-23T10:48:13;31.30;25.70
431;DHT22;202;48.764;9.172;2022-07-23T10:53:53;31.60;25.90
431;DHT22;202;48.764;9.172;2022-07-23T10:56:51;31.60;25.10
431;DHT22;202;48.764;9.172;2022-07-23T11:02:52;31.40;25.70
431;DHT22;202;48.764;9.172;2022-07-23T11:05:40;31.40;26.40
431;DHT22;202;48.764;9.172;2022-07-23T11:08:16;31.30;27.90
431;DHT22;202;48.764;9.172;2022-07-23T11:10:50;31.00;26.50
431;DHT22;202;48.764;9.172;2022-07-23T11:13:32;31.10;26.90
431;DHT22;202;48.764;9.172;2022-07-23T11:16:08;30.90;27.00
431;DHT22;202;48.764;9.172;2022-07-23T11:19:03;30.80;28.20
431;DHT22;202;48.764;9.172;2022-07-23T11:21:49;30.70;27.60
431;DHT22;202;48.764;9.172;2022-07-23T11:24:21;30.90;28.10
431;DHT22;202;48.764;9.172;2022-07-23T11:27:03;31.10;28.10
431;DHT22;202;48.764;9.172;2022-07-23T11:29:50;31.20;27.00
431;DHT22;202;48.764;9.172;2022-07-23T11:32:38;31.10;27.90
431;DHT22;202;48.764;9.172;2022-07-23T11:35:25;31.00;27.90
431;DHT22;202;48.764;9.172;2022-07-23T11:37:54;30.90;28.00
431;DHT22;202;48.764;9.172;2022-07-23T11:40:27;30.90;27.80
431;DHT22;202;48.764;9.172;2022-07-23T11:42:57;30.80;27.80
431;DHT22;202;48.764;9.172;2022-07-23T11:45:29;30.70;28.10
431;DHT22;202;48.764;9.172;2022-07-23T11:47:56;30.70;28.40
431;DHT22;202;48.764;9.172;2022-07-23T11:50:29;30.80;28.70
431;DHT22;202;48.764;9.172;2022-07-23T11:53:03;30.80;28.00
431;DHT22;202;48.764;9.172;2022-07-23T11:55:32;30.90;28.40
431;DHT22;202;48.764;9.172;2022-07-23T11:58:04;30.90;27.30
431;DHT22;202;48.764;9.172;2022-07-23T12:00:46;30.90;27.70
431;DHT22;202;48.764;9.172;2022-07-23T12:03:20;31.00;27.30
431;DHT22;202;48.764;9.172;2022-07-23T12:05:49;31.00;27.10
431;DHT22;202;48.764;9.172;2022-07-23T12:08:26;30.90;27.30
431;DHT22;202;48.764;9.172;2022-07-23T12:10:53;30.70;28.70
431;DHT22;202;48.764;9.172;2022-07-23T12:13:21;30.70;27.90
431;DHT22;202;48.764;9.172;2022-07-23T12:15:50;30.50;29.30
431;DHT22;202;48.764;9.172;2022-07-23T12:18:24;30.50;28.90
431;DHT22;202;48.764;9.172;2022-07-23T12:20:55;30.60;29.60
431;DHT22;202;48.764;9.172;2022-07-23T12:23:28;30.60;29.70
431;DHT22;202;48.764;9.172;2022-07-23T12:26:01;30.50;29.30
431;DHT22;202;48.764;9.172;2022-07-23T12:28:30;30.40;27.60
431;DHT22;202;48.764;9.172;2022-07-23T12:31:01;30.20;28.30
431;DHT22;202;48.764;9.172;2022-07-23T12:33:32;30.10;28.00
431;DHT22;202;48.764;9.172;2022-07-23T12:36:05;30.10;28.00
431;DHT22;202;48.764;9.172;2022-07-23T12:38:38;30.00;28.10
431;DHT22;202;48.764;9.172;2022-07-23T12:41:09;30.00;28.70
431;DHT22;202;48.764;9.172;2022-07-23T12:43:38;30.10;28.80
431;DHT22;202;48.764;9.172;2022-07-23T12:46:07;29.80;29.80
431;DHT22;202;48.764;9.172;2022-07-23T12:48:36;29.80;29.80
431;DHT22;202;48.764;9.172;2022-07-23T12:51:06;29.80;29.10
431;DHT22;202;48.764;9.172;2022-07-23T12:53:38;29.70;29.40
431;DHT22;202;48.764;9.172;2022-07-23T12:56:08;29.80;29.00
431;DHT22;202;48.764;9.172;2022-07-23T12:58:43;29.80;29.50
431;DHT22;202;48.764;9.172;2022-07-23T13:01:20;29.90;29.80
431;DHT22;202;48.764;9.172;2022-07-23T13:03:58;30.00;29.90
431;DHT22;202;48.764;9.172;2022-07-23T13:06:30;30.10;29.70
431;DHT22;202;48.764;9.172;2022-07-23T13:08:58;30.20;30.00
431;DHT22;202;48.764;9.172;2022-07-23T13:11:25;30.20;29.90
431;DHT22;202;48.764;9.172;2022-07-23T13:13:54;30.20;29.90
431;DHT22;202;48.764;9.172;2022-07-23T13:16:21;30.20;30.00
431;DHT22;202;48.764;9.172;2022-07-23T13:18:54;30.20;28.70
431;DHT22;202;48.764;9.172;2022-07-23T13:21:22;30.30;29.00
431;DHT22;202;48.764;9.172;2022-07-23T13:23:53;30.20;27.80
431;DHT22;202;48.764;9.172;2022-07-23T13:26:25;30.30;28.10
431;DHT22;202;48.764;9.172;2022-07-23T13:28:55;30.40;28.10
431;DHT22;202;48.764;9.172;2022-07-23T13:31:22;30.40;27.70
431;DHT22;202;48.764;9.172;2022-07-23T13:33:51;30.40;27.30
431;DHT22;202;48.764;9.172;2022-07-23T13:36:19;30.30;27.50
431;DHT22;202;48.764;9.172;2022-07-23T13:38:49;30.30;27.50
431;DHT22;202;48.764;9.172;2022-07-23T13:41:18;30.20;27.20
431;DHT22;202;48.764;9.172;2022-07-23T13:43:45;30.30;27.20
431;DHT22;202;48.764;9.172;2022-07-23T13:46:15;30.30;27.20
431;DHT22;202;48.764;9.172;2022-07-23T13:48:42;30.20;26.80
431;DHT22;202;48.764;9.172;2022-07-23T13:51:09;30.00;27.20
431;DHT22;202;48.764;9.172;2022-07-23T13:53:37;30.00;27.30
431;DHT22;202;48.764;9.172;2022-07-23T13:56:06;30.00;27.50
431;DHT22;202;48.764;9.172;2022-07-23T13:58:33;30.00;28.00
431;DHT22;202;48.764;9.172;2022-07-23T14:01:00;30.00;28.00
431;DHT22;202;48.764;9.172;2022-07-23T14:03:27;30.10;27.40
431;DHT22;202;48.764;9.172;2022-07-23T14:05:54;30.10;27.60
431;DHT22;202;48.764;9.172;2022-07-23T14:08:21;30.20;27.40
431;DHT22;202;48.764;9.172;2022-07-23T14:10:48;30.20;27.10
431;DHT22;202;48.764;9.172;2022-07-23T14:13:19;30.20;27.30
431;DHT22;202;48.764;9.172;2022-07-23T14:15:48;30.20;28.10
431;DHT22;202;48.764;9.172;2022-07-23T14:18:17;30.30;28.10
431;DHT22;202;48.764;9.172;2022-07-23T14:20:44;30.40;27.80
431;DHT22;202;48.764;9.172;2022-07-23T14:23:12;30.50;27.60
431;DHT22;202;48.764;9.172;2022-07-23T14:25:40;30.50;26.70
431;DHT22;202;48.764;9.172;2022-07-23T14:28:07;30.50;26.40
431;DHT22;202;48.764;9.172;2022-07-23T14:30:36;30.30;26.30
431;DHT22;202;48.764;9.172;2022-07-23T14:33:03;30.20;26.70
431;DHT22;202;48.764;9.172;2022-07-23T14:35:30;30.20;27.10
431;DHT22;202;48.764;9.172;2022-07-23T14:38:00;30.20;26.70
431;DHT22;202;48.764;9.172;2022-07-23T14:40:30;30.30;26.10
431;DHT22;202;48.764;9.172;2022-07-23T14:42:57;30.20;26.10
431;DHT22;202;48.764;9.172;2022-07-23T14:45:24;30.20;26.20
431;DHT22;202;48.764;9.172;2022-07-23T14:48:00;30.20;26.70
431;DHT22;202;48.764;9.172;2022-07-23T14:50:30;30.20;26.30
431;DHT22;202;48.764;9.172;2022-07-23T14:52:57;30.30;27.20
431;DHT22;202;48.764;9.172;2022-07-23T14:55:24;30.30;26.20
431;DHT22;202;48.764;9.172;2022-07-23T14:57:51;30.30;26.10
431;DHT22;202;48.764;9.172;2022-07-23T15:00:19;30.40;26.70
431;DHT22;202;48.764;9.172;2022-07-23T15:02:48;30.40;25.90
431;DHT22;202;48.764;9.172;2022-07-23T15:05:18;30.40;25.00
431;DHT22;202;48.764;9.172;2022-07-23T15:07:45;30.30;26.00
431;DHT22;202;48.764;9.172;2022-07-23T15:10:18;30.40;26.10
431;DHT22;202;48.764;9.172;2022-07-23T20:10:54;27.40;39.50
431;DHT22;202;48.764;9.172;2022-07-23T20:13:38;27.20;39.90
431;DHT22;202;48.764;9.172;2022-07-23T20:16:49;27.20;39.90
431;DHT22;202;48.764;9.172;2022-07-23T20:19:56;27.10;40.80
431;DHT22;202;48.764;9.172;2022-07-23T20:46:07;26.90;40.90
431;DHT22;202;48.764;9.172;2022-07-23T21:16:26;26.80;40.80
431;DHT22;202;48.764;9.172;2022-07-23T21:19:21;26.60;41.20
431;DHT22;202;48.764;9.172;2022-07-23T21:50:21;26.20;42.80
431;DHT22;202;48.764;9.172;2022-07-23T21:53:22;26.40;43.00
431;DHT22;202;48.764;9.172;2022-07-23T21:56:18;26.20;43.50
431;DHT22;202;48.764;9.172;2022-07-23T21:59:05;26.30;44.00
431;DHT22;202;48.764;9.172;2022-07-23T22:01:47;26.20;44.20
431;DHT22;202;48.764;9.172;2022-07-23T22:04:22;26.10;44.50
431;DHT22;202;48.764;9.172;2022-07-23T22:06:55;26.00;43.90
431;DHT22;202;48.764;9.172;2022-07-23T22:09:27;25.90;44.00
431;DHT22;202;48.764;9.172;2022-07-23T22:12:10;26.00;44.80
431;DHT22;202;48.764;9.172;2022-07-23T22:15:06;26.00;44.10
431;DHT22;202;48.764;9.172;2022-07-23T22:17:54;26.10;44.10
431;DHT22;202;48.764;9.172;2022-07-23T22:20:31;26.10;43.80
431;DHT22;202;48.764;9.172;2022-07-23T22:23:01;26.00;44.40
431;DHT22;202;48.764;9.172;2022-07-23T22:25:33;26.10;44.00
431;DHT22;202;48.764;9.172;2022-07-23T22:28:05;26.00;44.40
431;DHT22;202;48.764;9.172;2022-07-23T22:30:42;25.90;45.50
431;DHT22;202;48.764;9.172;2022-07-23T22:51:37;25.20;44.80
431;DHT22;202;48.764;9.172;2022-07-23T22:54:35;25.20;45.30
431;DHT22;202;48.764;9.172;2022-07-23T23:08:24;25.20;46.00
